Portada
METAR-TAF:

METAR-TAF

Aeroports :

Rosh Pinna, Israel

latitud: 32-58-48N, longitud: 035-34-12E, altitud: 281 m

Observació

L'informe es va fer fa 1 hora i 12 minuts, a les 08:50 UTC
Vent 7 kt del Sud/Sud-Est, variant entre Est/Sud-Est i Sud
Temperatura 20°C
Humitat 18%
Pressió 1016 hPa
Visibilitat 10 km o més
sense núvols per sota de 1500 mi sense presència de cumulonimbus.

METAR: LLIB 220850Z 15007KT 110V190 CAVOK 20/M05 Q1016 RMK FEW120

Hora: 12:02 (10:02 UTC)

Pronòstic

L'informe es va fer fa 4 hores i 52 minuts, a les 05:10 UTC
Pronòstic vàlid del 22 a les 06 UTC al 23 a les 06 UTC
Vent 4 kt del Oest/Sud-Oest
Visibilitat 10 km o més
sense núvols per sota de 1500 mi sense presència de cumulonimbus.
Evolucionant progressivament
l' 22 a les 07 UTC al 22 a les 09 UTC
Vent 8 kt del Sud-Est
Evolucionant progressivament
l' 22 a les 13 UTC al 22 a les 15 UTC
Vent 5 kt del Oest/Sud-Oest

TAF: LLIB 220510Z 2206/2306 24004KT CAVOK BECMG 2207/2209 13008KT BECMG 2213/2215 25005KT TX22/2212Z TN10/2304Z

Observacions i pronòstics meteorològics de més de 4000 aeroports (METAR i TAF).

Les estacions disponibles són els punts grocs i vermells al mapa.

Posi el ratolí al punt desitjat per veure el nom de l'estació.

Feu clic per veure les observacions i els pronòstics meteorològics.

Per canviar el mapa: feu clic els botons verds amb una creu de color negre per apropar; al botó verd amb un guió per allunyar la imatge; o en les fletxes verdes per a mapes adjacents.


METAR-TAF: